MMAA/ACA METAR and TAF weather

Enter ICAO airport designator
Station Type Date Time Source
MMAA METAR 2022/06/27 07:48 UTC NOAA

MMAA 270748Z 36002KT 5SM BKN015 27/25 A2990 RMK 8/400 HZY


Station Type Date Time Source
MMAA Decoded METAR 2022/06/27 07:48 UTC NOAA

Acapulco / G. Alvarez, Mexico (MMAA) 16-46N 099-45W
Jun 27, 2022 - 03:48 AM EDT / 2022.06.27 0748 UTC
Wind: from the N (360 degrees) at 2 MPH (2 KT):0
Visibility: 5 mile(s):0
Sky conditions: mostly cloudy
Temperature: 80 F (27 C)
Dew Point: 77 F (25 C)
Relative Humidity: 88%
Pressure (altimeter): 29.9 in. Hg (1012 hPa)
ob: MMAA 270748Z 36002KT 5SM BKN015 27/25 A2990 RMK 8/400 HZY
cycle: 8

Station Type Date Time Source
MMAA TAF 2022/06/27 06:52 UTC NOAA

TAF MMAA 270445Z 2706/2812 32005KT 5SM HZ SCT015 SCT100 SCT300 TX30/2718Z TN24/2712Z
FM271200 32005KT 6SM HZ BKN015 BKN100
FM271800 24010KT P6SM VC -RA SCT020 BKN300
TEMPO 2718/2721 5SM RA BKN020 BKN100 BKN300
FM272200 02010KT 5SM RA BKN015CB BKN100 BKN300
TEMPO 2722/2802 4SM RA

Example: see airport list